Happy Valentine's Day! 

Flight Track Log - Related Links

Times and Time Zones

All times are in EDT time to prevent confusion due to time zone crossing. See the DAL4165 flight status page for this flight to view local times or setup timezone preferences in your user account.


Time Position Orientation Groundspeed Altitude Reporting Facility
EDT Latitude Longitude Course Direction KTS MPH feet Rate Location/Type
Thu 01:44:30 PM 39.7000 -86.3167 237° Southwest 152 175 1,500  Level Indianapolis TRACON
Thu 01:45:18 PM 39.6833 -86.3500 237° Southwest 175 201 3,200 2,108 Climbing Indianapolis TRACON
Thu 01:46:21 PM 39.7261 -86.3903 324° Northwest 239 275 5,400 2,352 Climbing Indianapolis Center
Thu 01:47:23 PM 39.8086 -86.3703 11° North 289 333 8,100 2,806 Climbing Indianapolis Center
Thu 01:48:25 PM 39.9133 -86.3350 14° North 315 362 11,200 2,762 Climbing Indianapolis Center
Thu 01:50:32 PM 40.0947 -86.2711 17° North 332 382 16,800 2,540 Climbing Chicago Center
Thu 01:51:34 PM 40.1872 -86.2386 15° North 339 390 19,200 1,348 Climbing Chicago Center
Thu 01:53:39 PM 40.3975 -86.1728 13° North 356 410 21,000 578 Climbing Chicago Center
Thu 01:54:00 PM 40.2643 -85.8993 17° North  Level Estimated
Thu 01:54:41 PM 40.4950 -86.1375 15° North 361 415 21,000  Level Chicago Center
Thu 01:55:43 PM 40.5925 -86.1064 14° North 361 415 21,000  Level Chicago Center
Thu 01:56:45 PM 40.6911 -86.0725 15° North 364 419 21,000  Level Chicago Center
Thu 01:58:44 PM 40.8183 -85.8406 54° Northeast 446 513 21,000  Level Indianapolis Center
Thu 01:59:51 PM 40.8686 -85.6425 71° East 473 544 21,000  Level Chicago Center
Thu 02:00:53 PM 40.9083 -85.4817 72° East 465 535 21,000  Level Chicago Center
Thu 02:01:55 PM 40.9469 -85.3206 72° East 461 531 21,000  Level Chicago Center
Thu 02:02:57 PM 40.9975 -85.1669 66° East 467 537 21,000  Level Chicago Center
Thu 02:04:39 PM 41.1544 -85.0000 39° Northeast 447 514 21,000  Level Cleveland Center
Thu 02:06:03 PM 41.2942 -84.8506 39° Northeast 449 517 21,000 -290 Level Chicago Center
Thu 02:07:45 PM 41.4564 -84.6478 43° Northeast 459 528 20,100 -1,195 Descending Cleveland Center
Thu 02:09:49 PM 41.5997 -84.4128 51° Northeast 400 460 16,500 -1,831 Descending Cleveland Center
Thu 02:10:19 PM 41.6475 -84.3403 49° Northeast 397 457 15,400 -1,890 Descending Cleveland Center
Thu 02:11:02 PM 41.6967 -84.2581 51° Northeast 407 468 14,200 -1,673 Descending Cleveland Center
Thu 02:12:03 PM 41.7656 -84.1400 52° Northeast 401 461 12,500 -1,082 Descending Cleveland Center
Thu 02:13:04 PM 41.8408 -84.0194 50° Northeast 389 448 12,000 -738 Descending Cleveland Center
Thu 02:14:05 PM 41.9072 -83.9033 52° Northeast 392 451 11,000 -517 Descending Cleveland Center
Thu 02:15:00 PM 41.9569 -83.8142 53° Northeast 392 451 11,000  Level Cleveland Center
Thu 02:16:08 PM 42.0561 -83.6975 41° Northeast 383 441 11,000  Level Cleveland Center
Thu 02:17:04 PM 42.1253 -83.6108 43° Northeast 365 420 11,000  Level Cleveland Center
Thu 02:18:06 PM 42.1900 -83.5572 32° Northeast 270 311 11,000 -99 Level Cleveland Center
Thu 02:19:05 PM 42.2556 -83.5122 27° Northeast 260 299 10,800 -1,065 Descending Cleveland Center
Thu 02:20:10 PM 42.3239 -83.4628 28° Northeast 265 305 8,800 -2,063 Descending Cleveland Center
Thu 02:21:13 PM 42.3986 -83.4228 22° Northeast 262 302 6,400 -1,984 Descending Cleveland Center
Thu 02:22:14 PM 42.4622 -83.3892 21° North 236 272 4,700 -1,180 Descending Cleveland Center
Thu 02:23:15 PM 42.5000 -83.3322 48° Northeast 239 275 4,000 -344 Descending Cleveland Center
Thu 02:24:16 PM 42.4697 -83.2631 121° Southeast 169 194 4,000  Level Cleveland Center
Thu 02:25:21 PM 42.4308 -83.2672 185° South 190 219 4,000  Level Cleveland Center
Thu 02:26:12 PM 42.3831 -83.2733 185° South 158 182 4,000  Level Cleveland Center
Thu 02:26:23 PM 42.3781 -83.2742 187° South 165 190 4,000 -787 Level Cleveland Center
Thu 02:27:13 PM 42.3406 -83.2817 188° South 150 173 3,200 -871 Descending Cleveland Center
Thu 02:27:25 PM 42.3353 -83.2842 199° South 161 185 3,100 -744 Descending Cleveland Center
Thu 02:29:14 PM 42.2717 -83.3311 209° Southwest 123 142 1,700 -726 Descending Cleveland Center
Thu 02:29:29 PM 42.2686 -83.3344 219° Southwest 139 160 1,600 -590 Descending Cleveland Center
Thu 02:30:15 PM 42.2406 -83.3550 208° Southwest 127 146 1,100 -652 Descending Cleveland Center
Thu 02:32:00 PM 42.2124 -83.3534 173° South  Level Estimated
Thu 02:39:00 PM 42.2124 -83.3534 173° South  Level Estimated
Thu 02:40:00 PM 42.2124 -83.3534 349° North  Level Estimated
Thu 02:41:00 PM 42.2124 -83.3534 349° North  Level Estimated
Thu 02:42:00 PM 42.2124 -83.3534 10° North  Level Estimated

Login

Don't have an account? Register now (free) for customized features, flight alerts, and more!